Time;durP1;ratioP1;P1;durP2;ratioP2;P2;SDS_P1;SDS_P2;PMS_P1;PMS_P2;Temp;Humidity;BMP_temperature;BMP_pressure;BME280_temperature;BME280_humidity;BME280_pressure;Samples;Min_cycle;Max_cycle;Signal;HPM_P1;HPM_P2
2023/05/13 00:02:15;;;;;;;13.10;12.30;;;;;;;;;;4996541;28;20456;-65
2023/05/13 00:04:41;;;;;;;14.05;13.15;;;;;;;;;;4993920;28;20065;-65
2023/05/13 00:07:06;;;;;;;12.68;11.98;;;;;;;;;;4994541;28;20030;-65
2023/05/13 00:09:32;;;;;;;14.45;13.55;;;;;;;;;;4998875;28;20034;-65
2023/05/13 00:11:57;;;;;;;13.30;12.50;;;;;;;;;;4987724;28;20045;-66
2023/05/13 00:14:22;;;;;;;14.10;13.20;;;;;;;;;;4994703;28;20045;-64
2023/05/13 00:16:48;;;;;;;13.15;12.35;;;;;;;;;;4993206;28;20045;-64
2023/05/13 00:19:13;;;;;;;12.70;11.95;;;;;;;;;;4989939;28;20052;-64
2023/05/13 00:21:39;;;;;;;13.10;12.27;;;;;;;;;;4996343;28;20424;-64
2023/05/13 00:24:05;;;;;;;18.23;13.20;;;;;;;;;;4997084;28;20680;-64
2023/05/13 00:26:31;;;;;;;14.70;13.80;;;;;;;;;;4993296;28;20039;-64
2023/05/13 00:28:56;;;;;;;13.15;12.35;;;;;;;;;;4997133;28;20463;-64
2023/05/13 00:31:21;;;;;;;12.05;11.35;;;;;;;;;;4995306;28;20037;-64
2023/05/13 00:33:47;;;;;;;13.55;12.75;;;;;;;;;;4997112;28;20042;-64
2023/05/13 00:36:12;;;;;;;12.93;12.15;;;;;;;;;;4996605;28;20030;-64
2023/05/13 00:38:37;;;;;;;12.65;11.85;;;;;;;;;;4996935;28;20407;-64
2023/05/13 00:41:04;;;;;;;13.05;12.25;;;;;;;;;;4996915;28;20042;-64
2023/05/13 00:43:29;;;;;;;13.35;12.55;;;;;;;;;;4986574;28;20025;-64
2023/05/13 00:45:55;;;;;;;13.13;12.32;;;;;;;;;;4999395;28;20505;-65
2023/05/13 00:48:21;;;;;;;13.07;12.27;;;;;;;;;;4983899;28;20037;-65
2023/05/13 00:50:47;;;;;;;12.60;11.80;;;;;;;;;;4982953;28;20144;-64
2023/05/13 00:53:13;;;;;;;12.98;12.18;;;;;;;;;;5000350;28;20069;-64
2023/05/13 00:55:43;;;;;;;13.00;12.20;;;;;;;;;;4994225;28;20464;-64
2023/05/13 00:58:10;;;;;;;13.00;12.20;;;;;;;;;;4995429;28;20497;-64
2023/05/13 01:00:43;;;;;;;13.45;12.65;;;;;;;;;;4995908;28;20611;-64
2023/05/13 01:03:12;;;;;;;12.93;12.15;;;;;;;;;;4994631;28;20038;-63
2023/05/13 01:06:09;;;;;;;13.02;12.23;;;;;;;;;;4992840;28;20121;-63
2023/05/13 01:09:20;;;;;;;12.13;11.43;;;;;;;;;;4995663;28;20057;-64
2023/05/13 01:11:48;;;;;;;11.77;11.07;;;;;;;;;;4904508;29;20044;-64
2023/05/13 01:14:20;;;;;;;12.23;11.43;;;;;;;;;;4978207;28;20038;-63
2023/05/13 01:17:12;;;;;;;12.80;12.00;;;;;;;;;;4973294;28;20527;-64
2023/05/13 01:19:45;;;;;;;;;;;;;;;;;;4975253;28;20835;-64
2023/05/13 01:22:11;;;;;;;12.52;11.82;;;;;;;;;;4998141;28;20279;-64
2023/05/13 01:24:37;;;;;;;12.60;11.90;;;;;;;;;;4997651;28;20026;-64
2023/05/13 01:27:03;;;;;;;13.35;12.55;;;;;;;;;;4994358;28;20139;-64
2023/05/13 01:29:29;;;;;;;13.13;12.32;;;;;;;;;;4994251;28;20037;-64
2023/05/13 01:31:56;;;;;;;13.20;12.40;;;;;;;;;;4996053;28;20573;-64
2023/05/13 01:34:23;;;;;;;13.15;12.35;;;;;;;;;;4994875;28;20519;-63
2023/05/13 01:36:48;;;;;;;12.38;11.57;;;;;;;;;;4997131;28;20049;-64
2023/05/13 01:39:15;;;;;;;12.55;11.85;;;;;;;;;;5000423;28;20034;-64
2023/05/13 01:41:40;;;;;;;13.55;12.65;;;;;;;;;;5000540;28;20095;-63
2023/05/13 01:44:06;;;;;;;14.75;13.75;;;;;;;;;;4999705;28;20121;-64
2023/05/13 01:46:31;;;;;;;15.10;14.02;;;;;;;;;;4999039;28;20038;-64
2023/05/13 01:48:57;;;;;;;14.60;13.60;;;;;;;;;;4999425;28;20042;-64
2023/05/13 01:51:22;;;;;;;13.57;12.73;;;;;;;;;;4996022;28;20037;-64
2023/05/13 01:53:47;;;;;;;13.93;12.93;;;;;;;;;;4999177;28;20033;-64
2023/05/13 01:56:13;;;;;;;12.68;11.85;;;;;;;;;;5000966;28;20053;-65
2023/05/13 01:58:38;;;;;;;13.13;12.32;;;;;;;;;;4998481;28;20061;-64
2023/05/13 02:01:03;;;;;;;12.85;12.05;;;;;;;;;;5000406;28;20060;-64
2023/05/13 02:03:29;;;;;;;13.35;12.45;;;;;;;;;;4995245;28;20680;-65
2023/05/13 02:05:54;;;;;;;12.63;11.90;;;;;;;;;;4999550;28;20038;-65
2023/05/13 02:08:24;;;;;;;12.70;11.90;;;;;;;;;;5000093;28;20086;-65
2023/05/13 02:10:59;;;;;;;14.07;13.18;;;;;;;;;;4997336;28;20033;-64
2023/05/13 02:13:25;;;;;;;11.52;10.82;;;;;;;;;;4981670;28;20034;-64
2023/05/13 02:15:51;;;;;;;12.68;11.88;;;;;;;;;;4996490;28;20040;-65
2023/05/13 02:18:17;;;;;;;13.18;12.38;;;;;;;;;;4997387;28;20042;-65
2023/05/13 02:20:43;;;;;;;12.32;11.45;;;;;;;;;;4996571;28;20577;-64
2023/05/13 02:23:08;;;;;;;12.68;11.88;;;;;;;;;;5001242;28;20591;-65
2023/05/13 02:25:33;;;;;;;12.50;11.60;;;;;;;;;;5000831;28;20479;-65
2023/05/13 02:27:59;;;;;;;11.90;11.20;;;;;;;;;;4994429;28;20037;-65
2023/05/13 02:30:25;;;;;;;11.40;10.70;;;;;;;;;;4998493;28;20245;-65
2023/05/13 02:32:52;;;;;;;11.82;11.13;;;;;;;;;;4998166;28;20075;-65
2023/05/13 02:35:17;;;;;;;14.63;12.02;;;;;;;;;;5000356;28;20226;-65
2023/05/13 02:37:43;;;;;;;13.40;12.50;;;;;;;;;;4995501;28;20022;-65
2023/05/13 02:40:09;;;;;;;12.18;11.38;;;;;;;;;;4985722;28;20068;-65
2023/05/13 02:42:34;;;;;;;12.35;11.55;;;;;;;;;;4998646;28;20350;-65
2023/05/13 02:45:00;;;;;;;11.73;11.02;;;;;;;;;;5001955;28;20076;-64
2023/05/13 02:47:25;;;;;;;13.30;12.40;;;;;;;;;;5004538;28;20384;-65
2023/05/13 02:49:51;;;;;;;12.88;12.07;;;;;;;;;;5000140;28;20112;-65
2023/05/13 02:52:16;;;;;;;12.73;11.93;;;;;;;;;;4999269;28;20042;-65
2023/05/13 02:54:41;;;;;;;12.43;11.70;;;;;;;;;;4996264;28;20893;-65
2023/05/13 02:57:07;;;;;;;12.13;11.43;;;;;;;;;;4999003;28;20076;-64
2023/05/13 02:59:32;;;;;;;12.05;11.32;;;;;;;;;;4997500;28;20030;-65
2023/05/13 03:01:58;;;;;;;11.60;10.90;;;;;;;;;;4996053;28;20457;-64
2023/05/13 03:04:24;;;;;;;12.52;11.73;;;;;;;;;;5000359;28;20061;-65
2023/05/13 03:06:49;;;;;;;12.75;11.95;;;;;;;;;;4998523;28;20039;-64
2023/05/13 03:09:15;;;;;;;12.00;11.30;;;;;;;;;;4995400;28;20180;-65
2023/05/13 03:11:40;;;;;;;12.98;12.18;;;;;;;;;;4995067;28;20658;-65
2023/05/13 03:14:06;;;;;;;11.55;10.85;;;;;;;;;;4993977;28;20465;-65
2023/05/13 03:16:31;;;;;;;12.77;11.98;;;;;;;;;;4995028;28;20045;-64
2023/05/13 03:18:56;;;;;;;12.93;12.13;;;;;;;;;;4997488;28;20583;-65
2023/05/13 03:21:22;;;;;;;12.48;11.68;;;;;;;;;;4996838;28;20034;-64
2023/05/13 03:23:47;;;;;;;13.15;12.35;;;;;;;;;;4995225;28;20145;-64
2023/05/13 03:26:12;;;;;;;14.05;13.10;;;;;;;;;;4992276;28;20137;-64
2023/05/13 03:28:38;;;;;;;13.50;12.70;;;;;;;;;;4998152;28;20127;-65
2023/05/13 03:31:03;;;;;;;12.80;12.02;;;;;;;;;;4997287;28;20070;-65
2023/05/13 03:33:28;;;;;;;13.00;12.20;;;;;;;;;;4999948;28;20125;-65
2023/05/13 03:35:54;;;;;;;13.00;12.20;;;;;;;;;;4997736;28;20535;-65
2023/05/13 03:38:20;;;;;;;14.15;13.27;;;;;;;;;;5000037;28;20168;-64
2023/05/13 03:40:45;;;;;;;14.27;13.38;;;;;;;;;;4997317;28;20563;-64
2023/05/13 03:43:11;;;;;;;12.85;12.05;;;;;;;;;;4999717;28;20536;-65
2023/05/13 03:45:36;;;;;;;12.82;11.93;;;;;;;;;;4997609;28;20030;-65
2023/05/13 03:48:02;;;;;;;13.82;12.93;;;;;;;;;;4994725;28;20042;-65
2023/05/13 03:50:27;;;;;;;12.50;11.80;;;;;;;;;;4995546;28;20038;-64
2023/05/13 03:52:53;;;;;;;12.85;12.05;;;;;;;;;;4998505;28;20427;-65
2023/05/13 03:55:18;;;;;;;13.10;12.20;;;;;;;;;;4995668;28;20057;-64
2023/05/13 03:57:47;;;;;;;12.80;11.85;;;;;;;;;;4996163;28;20046;-64
2023/05/13 04:00:13;;;;;;;12.75;11.95;;;;;;;;;;4998592;28;20025;-64
2023/05/13 04:02:38;;;;;;;12.75;11.95;;;;;;;;;;4992262;28;20543;-65
2023/05/13 04:05:05;;;;;;;12.57;11.77;;;;;;;;;;4996288;28;20022;-64
2023/05/13 04:07:30;;;;;;;22.55;11.32;;;;;;;;;;4980110;28;20080;-65
2023/05/13 04:09:55;;;;;;;12.07;11.27;;;;;;;;;;4995521;28;20127;-65
2023/05/13 04:12:21;;;;;;;11.77;10.98;;;;;;;;;;4996900;28;20030;-65
2023/05/13 04:14:46;;;;;;;12.13;11.43;;;;;;;;;;4995127;28;20046;-64
2023/05/13 04:17:11;;;;;;;12.80;12.00;;;;;;;;;;4994928;28;20029;-64
2023/05/13 04:19:37;;;;;;;11.60;10.90;;;;;;;;;;4999730;28;20036;-64
2023/05/13 04:22:02;;;;;;;12.13;11.35;;;;;;;;;;4995249;28;20773;-64
2023/05/13 04:24:27;;;;;;;12.35;11.57;;;;;;;;;;4997520;28;20045;-64
2023/05/13 04:26:53;;;;;;;12.32;11.32;;;;;;;;;;4993455;28;20033;-65
2023/05/13 04:29:18;;;;;;;12.30;11.60;;;;;;;;;;4998136;28;20124;-65
2023/05/13 04:31:44;;;;;;;12.57;11.77;;;;;;;;;;4997870;28;20073;-65
2023/05/13 04:34:10;;;;;;;12.57;11.77;;;;;;;;;;4995454;28;20154;-65
2023/05/13 04:36:35;;;;;;;12.80;12.07;;;;;;;;;;4994167;28;20146;-65
2023/05/13 04:39:00;;;;;;;13.98;12.98;;;;;;;;;;4995637;28;20710;-66
2023/05/13 04:41:26;;;;;;;13.20;12.40;;;;;;;;;;4992420;28;20053;-65
2023/05/13 04:43:51;;;;;;;12.60;11.90;;;;;;;;;;4998323;28;20108;-65
2023/05/13 04:46:16;;;;;;;12.40;11.70;;;;;;;;;;4994428;28;20725;-65
2023/05/13 04:48:46;;;;;;;13.35;12.32;;;;;;;;;;4995813;28;20030;-65
2023/05/13 04:51:12;;;;;;;13.25;12.45;;;;;;;;;;4984222;28;20033;-65
2023/05/13 04:53:37;;;;;;;17.33;12.55;;;;;;;;;;4996850;28;20084;-66
2023/05/13 04:56:03;;;;;;;12.10;11.40;;;;;;;;;;4995243;28;20049;-65
2023/05/13 04:58:29;;;;;;;12.43;11.63;;;;;;;;;;4998062;28;20022;-66
2023/05/13 05:00:54;;;;;;;11.88;11.18;;;;;;;;;;4994920;28;20415;-65
2023/05/13 05:03:20;;;;;;;11.82;11.02;;;;;;;;;;4998985;28;20065;-66
2023/05/13 05:05:45;;;;;;;11.32;10.63;;;;;;;;;;4997716;28;20030;-65
2023/05/13 05:08:11;;;;;;;18.85;11.98;;;;;;;;;;4996639;28;20030;-65
2023/05/13 05:10:36;;;;;;;11.68;10.98;;;;;;;;;;4995440;28;20042;-65
2023/05/13 05:13:01;;;;;;;11.18;10.48;;;;;;;;;;4997442;28;20034;-64
2023/05/13 05:15:28;;;;;;;12.93;12.13;;;;;;;;;;4991066;28;20371;-64
2023/05/13 05:17:54;;;;;;;11.45;10.75;;;;;;;;;;4998005;28;20551;-65
2023/05/13 05:20:19;;;;;;;11.98;11.27;;;;;;;;;;5000059;28;20091;-65
2023/05/13 05:22:45;;;;;;;11.90;11.20;;;;;;;;;;4997607;28;20692;-64
2023/05/13 05:25:10;;;;;;;11.88;11.07;;;;;;;;;;4998003;28;20034;-64
2023/05/13 05:27:36;;;;;;;12.05;11.35;;;;;;;;;;4998833;28;20160;-65
2023/05/13 05:30:01;;;;;;;12.20;11.48;;;;;;;;;;4999739;28;20042;-64
2023/05/13 05:32:27;;;;;;;14.48;13.68;;;;;;;;;;4999690;28;20117;-64
2023/05/13 05:34:52;;;;;;;13.65;12.85;;;;;;;;;;5000829;28;20022;-64
2023/05/13 05:37:17;;;;;;;16.83;15.88;;;;;;;;;;5001092;28;20029;-64
2023/05/13 05:39:43;;;;;;;20.25;19.13;;;;;;;;;;5000287;28;20065;-64
2023/05/13 05:42:08;;;;;;;17.85;16.85;;;;;;;;;;4998276;28;20029;-64
2023/05/13 05:44:34;;;;;;;24.05;22.75;;;;;;;;;;5002354;28;20030;-64
2023/05/13 05:46:59;;;;;;;24.75;23.42;;;;;;;;;;4985966;28;20042;-65
2023/05/13 05:49:24;;;;;;;29.77;28.20;;;;;;;;;;4996920;28;20042;-66
2023/05/13 05:51:50;;;;;;;31.83;30.13;;;;;;;;;;4997419;28;20041;-65
2023/05/13 05:54:15;;;;;;;34.38;32.53;;;;;;;;;;4999733;28;20405;-65
2023/05/13 05:56:40;;;;;;;35.67;33.75;;;;;;;;;;4999979;28;20061;-66
2023/05/13 05:59:06;;;;;;;37.78;35.83;;;;;;;;;;4984123;28;20033;-65
2023/05/13 06:01:33;;;;;;;37.15;35.17;;;;;;;;;;4995870;28;20064;-65
2023/05/13 06:03:58;;;;;;;28.08;26.58;;;;;;;;;;4979020;28;20147;-66
2023/05/13 06:06:24;;;;;;;18.23;17.23;;;;;;;;;;5000070;28;20042;-66
2023/05/13 06:08:49;;;;;;;18.65;17.55;;;;;;;;;;5004252;28;20121;-66
2023/05/13 06:11:15;;;;;;;22.42;21.15;;;;;;;;;;4998267;28;20132;-66
2023/05/13 06:13:40;;;;;;;16.65;15.65;;;;;;;;;;5004136;28;20124;-65
2023/05/13 06:16:06;;;;;;;12.85;12.10;;;;;;;;;;5000094;28;20025;-65
2023/05/13 06:18:31;;;;;;;13.18;12.38;;;;;;;;;;4998321;28;20052;-66
2023/05/13 06:20:56;;;;;;;11.13;10.43;;;;;;;;;;4992942;28;20100;-66
2023/05/13 06:23:22;;;;;;;12.75;12.00;;;;;;;;;;4996538;28;20037;-66
2023/05/13 06:25:47;;;;;;;16.42;15.48;;;;;;;;;;4994767;28;20037;-67
2023/05/13 06:28:12;;;;;;;15.60;14.70;;;;;;;;;;4998930;28;20049;-67
2023/05/13 06:30:38;;;;;;;18.63;17.63;;;;;;;;;;4996778;28;21084;-67
2023/05/13 06:33:03;;;;;;;17.92;16.88;;;;;;;;;;4997537;28;20041;-66
2023/05/13 06:35:29;;;;;;;23.30;22.02;;;;;;;;;;4998277;28;20030;-66
2023/05/13 06:37:55;;;;;;;21.35;20.17;;;;;;;;;;4998357;28;20461;-66
2023/05/13 06:40:20;;;;;;;18.75;17.73;;;;;;;;;;5002075;28;20038;-66
2023/05/13 06:42:45;;;;;;;25.92;24.48;;;;;;;;;;4997270;28;20030;-66
2023/05/13 06:45:11;;;;;;;28.15;26.65;;;;;;;;;;4997056;28;20066;-66
2023/05/13 06:47:36;;;;;;;29.20;27.65;;;;;;;;;;4997433;28;20046;-66
2023/05/13 06:50:02;;;;;;;32.28;30.58;;;;;;;;;;4998699;28;20033;-66
2023/05/13 06:52:27;;;;;;;27.10;25.67;;;;;;;;;;4998017;28;20527;-67
2023/05/13 06:54:53;;;;;;;23.63;22.35;;;;;;;;;;4996703;28;20172;-66
2023/05/13 06:57:18;;;;;;;26.33;24.83;;;;;;;;;;4998123;28;20125;-66
2023/05/13 06:59:43;;;;;;;27.95;26.25;;;;;;;;;;4985797;28;20037;-66
2023/05/13 07:02:10;;;;;;;18.40;17.35;;;;;;;;;;4977601;28;20022;-66
2023/05/13 07:04:36;;;;;;;20.08;18.98;;;;;;;;;;4985105;28;20216;-67
2023/05/13 07:07:01;;;;;;;14.68;13.77;;;;;;;;;;4995936;28;20057;-66
2023/05/13 07:09:26;;;;;;;13.60;12.80;;;;;;;;;;4999721;28;20369;-66
2023/05/13 07:11:52;;;;;;;15.85;14.77;;;;;;;;;;4995524;28;20352;-67
2023/05/13 07:14:18;;;;;;;13.25;12.45;;;;;;;;;;4995922;28;20073;-67
2023/05/13 07:16:44;;;;;;;15.45;14.55;;;;;;;;;;4998313;28;20120;-67
2023/05/13 07:19:09;;;;;;;14.75;13.85;;;;;;;;;;4993221;28;20117;-67
2023/05/13 07:21:35;;;;;;;11.60;10.90;;;;;;;;;;4996495;28;20526;-66
2023/05/13 07:24:01;;;;;;;10.50;9.90;;;;;;;;;;4998422;28;20033;-66
2023/05/13 07:26:26;;;;;;;11.23;10.52;;;;;;;;;;4996707;28;20396;-68
2023/05/13 07:28:52;;;;;;;12.05;11.35;;;;;;;;;;4996103;28;20056;-68
2023/05/13 07:31:17;;;;;;;11.70;11.00;;;;;;;;;;5000172;28;20041;-67
2023/05/13 07:33:43;;;;;;;11.75;11.05;;;;;;;;;;4996326;28;20061;-67
2023/05/13 07:36:08;;;;;;;11.95;11.25;;;;;;;;;;4994361;28;20922;-67
2023/05/13 07:38:33;;;;;;;11.95;11.15;;;;;;;;;;4996609;28;20136;-68
2023/05/13 07:40:59;;;;;;;11.90;11.20;;;;;;;;;;4990362;28;20030;-69
2023/05/13 07:43:26;;;;;;;11.48;10.77;;;;;;;;;;4996993;28;20470;-67
2023/05/13 07:45:52;;;;;;;11.38;10.68;;;;;;;;;;4993686;28;20037;-66
2023/05/13 07:48:18;;;;;;;12.13;11.43;;;;;;;;;;4994225;28;20740;-67
2023/05/13 07:50:46;;;;;;;11.23;10.52;;;;;;;;;;4999313;28;20193;-67
2023/05/13 07:53:11;;;;;;;12.43;11.68;;;;;;;;;;4998841;28;20068;-67
2023/05/13 07:55:37;;;;;;;10.52;9.90;;;;;;;;;;4995482;28;20117;-67
2023/05/13 07:58:02;;;;;;;11.75;11.05;;;;;;;;;;4982072;28;20038;-67
2023/05/13 08:00:28;;;;;;;13.02;12.13;;;;;;;;;;4999260;28;20044;-58
2023/05/13 08:02:53;;;;;;;11.65;10.95;;;;;;;;;;4996131;28;20037;-59
2023/05/13 08:05:19;;;;;;;13.45;12.65;;;;;;;;;;4999611;28;20037;-59
2023/05/13 08:07:44;;;;;;;14.80;13.90;;;;;;;;;;4998037;28;20422;-57
2023/05/13 08:10:10;;;;;;;15.68;14.77;;;;;;;;;;4996237;28;20034;-58
2023/05/13 08:12:35;;;;;;;13.27;12.48;;;;;;;;;;4993626;28;20121;-59
2023/05/13 08:15:03;;;;;;;12.85;12.05;;;;;;;;;;4983158;28;20963;-59
2023/05/13 08:17:28;;;;;;;14.20;13.40;;;;;;;;;;4997091;28;20769;-59
2023/05/13 08:19:54;;;;;;;14.75;13.93;;;;;;;;;;4997251;28;20033;-59
2023/05/13 08:22:19;;;;;;;13.85;13.05;;;;;;;;;;4995668;28;20031;-60
2023/05/13 08:24:45;;;;;;;15.55;14.65;;;;;;;;;;4995436;28;20049;-59
2023/05/13 08:27:11;;;;;;;15.45;14.55;;;;;;;;;;4996735;28;20340;-59
2023/05/13 08:29:36;;;;;;;15.95;15.05;;;;;;;;;;4998934;28;20030;-59
2023/05/13 08:32:02;;;;;;;17.85;16.85;;;;;;;;;;4992710;28;20372;-59
2023/05/13 08:34:27;;;;;;;19.67;18.58;;;;;;;;;;4991015;28;20113;-60
2023/05/13 08:36:53;;;;;;;22.33;21.13;;;;;;;;;;4999026;28;20569;-60
2023/05/13 08:39:18;;;;;;;20.75;19.65;;;;;;;;;;4999478;28;20577;-60
2023/05/13 08:41:45;;;;;;;19.30;18.23;;;;;;;;;;4992027;28;20033;-60
2023/05/13 08:44:12;;;;;;;21.52;20.33;;;;;;;;;;4996194;28;20037;-60
2023/05/13 08:46:42;;;;;;;24.00;22.55;;;;;;;;;;4996779;28;20030;-60
2023/05/13 08:49:08;;;;;;;;;;;;;;;;;;4999008;28;20133;-59
2023/05/13 08:51:33;;;;;;;22.02;20.83;;;;;;;;;;4996681;28;20071;-59
2023/05/13 08:54:00;;;;;;;25.58;23.48;;;;;;;;;;4997930;28;20631;-59
2023/05/13 08:56:27;;;;;;;22.30;21.10;;;;;;;;;;4993405;28;20172;-60
2023/05/13 08:58:53;;;;;;;22.98;21.73;;;;;;;;;;4997703;28;20467;-60
2023/05/13 09:01:19;;;;;;;24.88;23.48;;;;;;;;;;5001363;28;20048;-59
2023/05/13 09:03:53;;;;;;;22.17;20.98;;;;;;;;;;4997512;28;20121;-59
2023/05/13 09:06:19;;;;;;;25.17;23.83;;;;;;;;;;5000435;28;20053;-60
2023/05/13 09:08:45;;;;;;;24.48;23.17;;;;;;;;;;4998780;28;20412;-60
2023/05/13 09:11:10;;;;;;;24.25;22.95;;;;;;;;;;4997967;28;20048;-59
2023/05/13 09:13:36;;;;;;;24.20;22.90;;;;;;;;;;5000214;28;20049;-60
2023/05/13 09:16:01;;;;;;;23.75;22.45;;;;;;;;;;4981991;28;20065;-60
2023/05/13 09:18:30;;;;;;;22.30;21.10;;;;;;;;;;5002098;28;20464;-60
2023/05/13 09:20:56;;;;;;;22.45;21.25;;;;;;;;;;4997880;28;20541;-60
2023/05/13 09:23:22;;;;;;;22.52;21.33;;;;;;;;;;5000019;28;20026;-60
2023/05/13 09:25:48;;;;;;;17.67;16.67;;;;;;;;;;4999428;28;20080;-61
2023/05/13 09:28:14;;;;;;;24.42;23.13;;;;;;;;;;5000135;28;20046;-60
2023/05/13 09:30:40;;;;;;;30.52;28.85;;;;;;;;;;5000206;28;20124;-59
2023/05/13 09:33:18;;;;;;;18.27;17.27;;;;;;;;;;4999748;28;20399;-59
2023/05/13 09:35:51;;;;;;;19.02;18.00;;;;;;;;;;4998197;28;20558;-59
2023/05/13 09:38:18;;;;;;;20.65;19.55;;;;;;;;;;4999571;28;20040;-60
2023/05/13 09:41:01;;;;;;;20.05;18.85;;;;;;;;;;4997558;28;20120;-60
2023/05/13 09:43:31;;;;;;;17.08;16.13;;;;;;;;;;4981551;28;20503;-60
2023/05/13 09:46:01;;;;;;;16.52;15.63;;;;;;;;;;4984613;28;20038;-60
2023/05/13 09:48:28;;;;;;;17.40;16.40;;;;;;;;;;4999372;28;20034;-60
2023/05/13 09:50:56;;;;;;;18.70;17.67;;;;;;;;;;5000565;28;20045;-60
2023/05/13 09:53:25;;;;;;;19.15;18.13;;;;;;;;;;4986528;28;20065;-60
2023/05/13 09:55:52;;;;;;;17.83;16.83;;;;;;;;;;4998467;28;20066;-59
2023/05/13 09:58:23;;;;;;;17.65;16.65;;;;;;;;;;4993776;28;20092;-59
2023/05/13 10:00:50;;;;;;;20.02;18.83;;;;;;;;;;4995849;28;20075;-60
2023/05/13 10:03:15;;;;;;;22.33;21.13;;;;;;;;;;4986230;28;20093;-60
2023/05/13 10:05:41;;;;;;;21.33;20.13;;;;;;;;;;4998631;28;20034;-60
2023/05/13 10:08:11;;;;;;;19.40;18.30;;;;;;;;;;4997975;28;20045;-62
2023/05/13 10:10:38;;;;;;;21.05;19.85;;;;;;;;;;4987373;28;20123;-60
2023/05/13 10:13:12;;;;;;;21.02;19.90;;;;;;;;;;5000281;28;20138;-61
2023/05/13 10:15:52;;;;;;;24.95;23.58;;;;;;;;;;4998636;28;20037;-62
2023/05/13 10:18:19;;;;;;;26.03;24.33;;;;;;;;;;4997375;28;20526;-61
2023/05/13 10:20:45;;;;;;;24.27;22.98;;;;;;;;;;5000164;28;20338;-62
2023/05/13 10:23:11;;;;;;;24.92;23.63;;;;;;;;;;4979937;28;20042;-60
2023/05/13 10:25:37;;;;;;;29.40;27.85;;;;;;;;;;4999181;28;20051;-62
2023/05/13 10:28:03;;;;;;;27.08;25.63;;;;;;;;;;4996448;28;20391;-62
2023/05/13 10:30:31;;;;;;;22.88;21.67;;;;;;;;;;4998031;28;20045;-61
2023/05/13 10:32:57;;;;;;;38.20;36.20;;;;;;;;;;4994207;28;20046;-61
2023/05/13 10:35:27;;;;;;;32.92;31.23;;;;;;;;;;4996055;28;20096;-60
2023/05/13 10:38:01;;;;;;;40.13;38.10;;;;;;;;;;4997550;28;20104;-61
2023/05/13 10:40:33;;;;;;;22.48;21.27;;;;;;;;;;4996490;28;20752;-60
2023/05/13 10:43:17;;;;;;;29.75;28.17;;;;;;;;;;4993654;28;20045;-61
2023/05/13 10:45:50;;;;;;;36.50;34.60;;;;;;;;;;4997737;28;20064;-63
2023/05/13 10:48:17;;;;;;;38.30;36.33;;;;;;;;;;4997001;28;20148;-61
2023/05/13 10:51:12;;;;;;;32.45;30.70;;;;;;;;;;5000719;28;20022;-61
2023/05/13 10:53:49;;;;;;;27.33;25.92;;;;;;;;;;4992459;28;20049;-61
2023/05/13 10:56:18;;;;;;;36.40;34.50;;;;;;;;;;4984843;28;20026;-62
2023/05/13 10:58:57;;;;;;;32.90;31.10;;;;;;;;;;4996752;28;20561;-61
2023/05/13 11:01:42;;;;;;;31.20;29.63;;;;;;;;;;4972517;28;20038;-60
2023/05/13 11:04:18;;;;;;;31.10;29.50;;;;;;;;;;4995305;28;20072;-62
2023/05/13 11:06:45;;;;;;;36.90;34.95;;;;;;;;;;4997974;28;20030;-62
2023/05/13 11:09:15;;;;;;;38.50;36.38;;;;;;;;;;4994225;28;20042;-61
2023/05/13 11:11:41;;;;;;;37.30;35.25;;;;;;;;;;4996507;28;20126;-61
2023/05/13 11:14:17;;;;;;;34.30;32.50;;;;;;;;;;4999276;28;20553;-62
2023/05/13 11:16:53;;;;;;;30.70;29.05;;;;;;;;;;4998189;28;20367;-62
2023/05/13 11:19:21;;;;;;;23.15;21.92;;;;;;;;;;4995759;28;20119;-61
2023/05/13 11:21:51;;;;;;;23.52;22.23;;;;;;;;;;4996195;28;20184;-60
2023/05/13 11:24:18;;;;;;;23.95;22.65;;;;;;;;;;4997645;28;20041;-60
2023/05/13 11:26:52;;;;;;;26.08;24.48;;;;;;;;;;4997273;28;20575;-60
2023/05/13 11:29:37;;;;;;;20.20;19.10;;;;;;;;;;4997150;28;20100;-61
2023/05/13 11:32:05;;;;;;;24.50;23.20;;;;;;;;;;4994206;28;20116;-61
2023/05/13 11:34:32;;;;;;;18.38;17.27;;;;;;;;;;4997155;28;20412;-61
2023/05/13 11:37:03;;;;;;;20.20;19.05;;;;;;;;;;4996158;28;20038;-59
2023/05/13 11:39:29;;;;;;;16.33;15.43;;;;;;;;;;4998935;28;20063;-59
2023/05/13 11:42:00;;;;;;;20.27;19.17;;;;;;;;;;4995236;28;20034;-59
2023/05/13 11:44:26;;;;;;;22.40;21.20;;;;;;;;;;4984698;28;20339;-59
2023/05/13 11:46:56;;;;;;;24.65;23.30;;;;;;;;;;4996331;28;20073;-59
2023/05/13 11:49:41;;;;;;;16.23;15.23;;;;;;;;;;4997886;28;20101;-59
2023/05/13 11:52:11;;;;;;;28.15;26.67;;;;;;;;;;4994969;28;20030;-59
2023/05/13 11:54:46;;;;;;;36.13;34.25;;;;;;;;;;4996537;28;20112;-59
2023/05/13 11:57:28;;;;;;;36.70;34.80;;;;;;;;;;4992111;28;20085;-59
2023/05/13 11:59:57;;;;;;;32.53;30.83;;;;;;;;;;4997122;28;20041;-60
2023/05/13 12:02:30;;;;;;;35.83;33.85;;;;;;;;;;4991178;28;20464;-59
2023/05/13 12:05:00;;;;;;;41.20;39.10;;;;;;;;;;4995827;28;20049;-59
2023/05/13 12:07:26;;;;;;;33.35;31.63;;;;;;;;;;4992759;28;20117;-59
2023/05/13 12:09:54;;;;;;;32.42;30.73;;;;;;;;;;4997435;28;20034;-59
2023/05/13 12:12:20;;;;;;;48.67;46.20;;;;;;;;;;4994700;28;20037;-59
2023/05/13 12:14:48;;;;;;;35.30;33.40;;;;;;;;;;4992845;28;21051;-58
2023/05/13 12:17:15;;;;;;;30.48;28.88;;;;;;;;;;4993009;28;20577;-58
2023/05/13 12:20:04;;;;;;;34.17;32.40;;;;;;;;;;4998166;28;20381;-59
2023/05/13 12:22:29;;;;;;;31.48;29.80;;;;;;;;;;4984488;28;20046;-59
2023/05/13 12:24:59;;;;;;;38.33;36.38;;;;;;;;;;4993936;28;20650;-59
2023/05/13 12:27:25;;;;;;;38.20;36.20;;;;;;;;;;4997071;28;20034;-59
2023/05/13 12:29:53;;;;;;;32.33;30.52;;;;;;;;;;4994810;28;20030;-59
2023/05/13 12:32:19;;;;;;;51.45;48.83;;;;;;;;;;4994828;28;20034;-59
2023/05/13 12:34:49;;;;;;;54.40;51.65;;;;;;;;;;4996946;28;20093;-60
2023/05/13 12:37:15;;;;;;;36.45;34.58;;;;;;;;;;4994714;28;20045;-59
2023/05/13 12:39:41;;;;;;;31.05;29.40;;;;;;;;;;4983044;28;20042;-59
2023/05/13 12:42:17;;;;;;;46.55;44.15;;;;;;;;;;4992035;28;20131;-59
2023/05/13 12:44:45;;;;;;;34.70;32.90;;;;;;;;;;4995975;28;20305;-59
2023/05/13 12:47:14;;;;;;;28.67;27.17;;;;;;;;;;4995490;28;20065;-60
2023/05/13 12:49:57;;;;;;;30.42;28.83;;;;;;;;;;4977426;28;20053;-60
2023/05/13 12:52:22;;;;;;;23.30;22.05;;;;;;;;;;4994085;28;20029;-62
2023/05/13 12:54:48;;;;;;;24.08;22.77;;;;;;;;;;4981525;28;20477;-61
2023/05/13 12:57:17;;;;;;;30.58;28.98;;;;;;;;;;4995154;28;20038;-61
2023/05/13 12:59:46;;;;;;;30.30;28.73;;;;;;;;;;4995480;28;20038;-61
2023/05/13 13:02:12;;;;;;;32.83;31.02;;;;;;;;;;4995378;28;20046;-60
2023/05/13 13:04:37;;;;;;;33.72;31.95;;;;;;;;;;4993250;28;20069;-61
2023/05/13 13:07:05;;;;;;;30.10;28.50;;;;;;;;;;4992762;28;20050;-61
2023/05/13 13:09:30;;;;;;;25.52;24.15;;;;;;;;;;4997017;28;20034;-60
2023/05/13 13:11:55;;;;;;;20.70;19.50;;;;;;;;;;4994389;28;20039;-60
2023/05/13 13:14:22;;;;;;;20.02;18.92;;;;;;;;;;4998356;28;20430;-60
2023/05/13 13:16:48;;;;;;;17.90;16.90;;;;;;;;;;4995299;28;20061;-60
2023/05/13 13:19:13;;;;;;;18.77;17.25;;;;;;;;;;4981075;28;20061;-60
2023/05/13 13:21:38;;;;;;;17.55;16.52;;;;;;;;;;4995155;28;20036;-60
2023/05/13 13:24:04;;;;;;;16.45;15.52;;;;;;;;;;4992451;28;20034;-60
2023/05/13 13:26:29;;;;;;;16.58;15.63;;;;;;;;;;4981493;28;20113;-59
2023/05/13 13:28:54;;;;;;;13.70;12.90;;;;;;;;;;4996550;28;20041;-60
2023/05/13 13:31:20;;;;;;;12.40;11.70;;;;;;;;;;4991579;28;20128;-60
2023/05/13 13:33:46;;;;;;;12.45;11.73;;;;;;;;;;4964057;28;20033;-59
2023/05/13 13:36:11;;;;;;;14.50;13.70;;;;;;;;;;4996719;28;20041;-61
2023/05/13 13:38:36;;;;;;;12.40;11.60;;;;;;;;;;5000924;28;20427;-60
2023/05/13 13:41:02;;;;;;;10.98;10.27;;;;;;;;;;4993916;28;20038;-60
2023/05/13 13:43:27;;;;;;;11.82;11.13;;;;;;;;;;4997301;28;20037;-60
2023/05/13 13:45:52;;;;;;;11.57;10.88;;;;;;;;;;4998854;28;20038;-60
2023/05/13 13:48:18;;;;;;;12.18;11.48;;;;;;;;;;4997895;28;20103;-60
2023/05/13 13:50:43;;;;;;;11.85;11.15;;;;;;;;;;4994105;28;20084;-60
2023/05/13 13:53:09;;;;;;;10.50;9.90;;;;;;;;;;5001664;28;20045;-60
2023/05/13 13:55:34;;;;;;;10.75;10.07;;;;;;;;;;4983272;28;20038;-60
2023/05/13 13:57:59;;;;;;;12.75;11.80;;;;;;;;;;5000316;28;20437;-59
2023/05/13 14:00:25;;;;;;;10.85;10.15;;;;;;;;;;4996262;28;20072;-60
2023/05/13 14:02:50;;;;;;;11.52;10.73;;;;;;;;;;4999187;28;20042;-60
2023/05/13 14:05:16;;;;;;;11.52;10.82;;;;;;;;;;4994205;28;20038;-60
2023/05/13 14:07:41;;;;;;;12.65;11.95;;;;;;;;;;4998753;28;20113;-67
2023/05/13 14:10:07;;;;;;;23.10;21.85;;;;;;;;;;4999042;28;20045;-68
2023/05/13 14:12:34;;;;;;;23.25;22.02;;;;;;;;;;5001130;28;20108;-68
2023/05/13 14:14:59;;;;;;;22.40;21.15;;;;;;;;;;4999014;28;20046;-68
2023/05/13 14:17:25;;;;;;;22.10;20.90;;;;;;;;;;4997397;28;20151;-69
2023/05/13 14:19:52;;;;;;;22.05;20.85;;;;;;;;;;4988369;28;20040;-68